Tiempo atmosférico en la estación meteorológica de Benabarre, Huesca (765 m.)



Fecha
DESCASC
Temp. máxima en grados centígrados (hora)
DESCASC
Temp. mínima en grados centígrados (hora)
DESCASC
Temp. media en grados centígrados
DESCASC
Racha de viento máxima en m/sg (hora)
DESCASC
Velocidad máxima media en intervalos de 10 minutos(hora)
DESCASC
Precipitaciones diarias en mm
DESCASC
Precipitaciones de 00:00 a 06:00 en mm
DESCASC
Precipitaciones de 06:00 a 12:00 en mm
DESCASC
Precipitaciones de 12:00 a 18:00 en mm
DESCASC
Precipitaciones de 18:00 a 24:00 en mm
DESCASC
05-04-2020 15.5 (16:10) 1.5 (06:00) 8.5 7.5 (12:00) 4.44 (12:00) 0 0 0 0 0
04-04-2020 15.9 (15:50) 2.8 (07:10) 9.3 7.5 (18:00) 4.44 (12:10) 0 0 0 0 0
03-04-2020 13.3 (18:00) 2.8 (03:50) 8.1 6.94 (13:50) 4.17 (15:40) 0 0 0 0 0
02-04-2020 11 (16:50) 6 (00:00) 8.5 4.17 (20:00) 3.06 (20:00) 3.2 2.8 0 0 0.4
01-04-2020 8.8 (12:50) 6.2 (00:00) 7.5 10.56 (13:10) 7.5 (13:10) 11.2 0.6 0.8 2.2 7.6
31-03-2020 8.5 (13:30) 0.8 (00:00) 4.7 9.44 (16:30) 6.39 (10:10) 15.2 2.8 1.6 3.8 7
30-03-2020 9.1 (00:00) 1 (00:00) 5.1 8.61 (07:50) 5 (07:50) 0.8 0 0.4 0 0.4
29-03-2020 16.1 (17:30) 3.4 (00:00) 9.8 8.06 (22:20) 5.56 (22:20) 0 0 0 0 0
28-03-2020 14.3 (16:40) 1.6 (00:00) 8 9.44 (14:50) 4.72 (14:50) 0 0 0 0 0
27-03-2020 11.3 (15:10) -2 (-00:0) 4.7 6.39 (17:50) 4.17 (11:50) 0 0 0 0 0
26-03-2020 10.7 (12:50) -0.3 (00:00) 5.2 10.28 (15:40) 7.5 (15:40) 0 0 0 0 0
25-03-2020 5.3 (15:00) 1.5 (00:00) 3.4 6.67 (06:00) 4.17 (06:00) 1.2 0.6 0.6 0 0
24-03-2020 13.3 (14:30) 4.9 (00:00) 9.1 7.5 (15:40) 4.44 (19:40) 6.2 0 0 0 6.2
23-03-2020 12.8 (17:20) 4.1 (00:00) 8.5 9.44 (11:30) 6.67 (11:00) 1 0 0 0.4 0.6
22-03-2020 13.9 (17:00) 5.4 (07:50) 9.6 7.5 (17:20) 4.17 (17:30) 0 0 0 0 0
21-03-2020 15.1 (14:40) 1.9 (00:00) 8.5 6.11 (15:30) 3.89 (15:00) 0 0 0 0 0
20-03-2020 14.6 (14:00) 3.7 (00:00) 9.2 7.5 (16:20) 4.72 (16:00) 0 0 0 0 0
19-03-2020 16.9 (15:00) 5 (00:00) 10.9 8.06 (17:00) 5 (17:00) 0 0 0 0 0
18-03-2020 15 (14:20) 6.1 (00:00) 10.5 3.89 (14:40) 2.78 (17:10) 0 0 0 0 0
17-03-2020 13.2 (14:40) 7.9 (00:00) 10.5 11.39 (03:40) 7.5 (00:30) 0 0 0 0 0
16-03-2020 8.7 (18:20) 6.3 (00:00) 7.5 15.56 (21:20) 10.56 (21:20) 26 13.8 8.8 3.4 0
15-03-2020 17.1 (14:10) 3.7 (00:00) 10.4 12.78 (21:50) 8.89 (21:50) 3.2 0 0 0 3.2
14-03-2020 14.3 (16:10) 5.2 (00:00) 9.8 5.28 (13:10) 3.61 (12:40) 0 0 0 0 0
13-03-2020 13.3 (16:40) 8.2 (23:20) 10.8 7.22 (01:20) 4.17 (01:40) 0 0 0 0 0
12-03-2020 23.6 (14:50) 7.7 (00:00) 15.7 12.22 (23:50) 7.22 (23:50) 2 0 0 0 2
11-03-2020 20.7 (15:30) 5.4 (00:00) 13.1 5.28 (00:40) 3.33 (02:40) 0 0 0 0 0
10-03-2020 16.1 (15:30) 1.8 (00:00) 9 6.39 (13:40) 4.44 (19:20) 0 0 0 0 0

Gráficas

Temp. máximas Temp. mínimas Temp. medias Precipitaciones Rachas de viento máximas Velocidades máximas media en intervalos de 10 minutos

Datos horarios

Fecha y hora oficial Temperatura (ºC) Velocidad del viento (km/h) Dirección del viento Racha (km/h) Dirección de racha Precipitación (mm) Presión (hPa) Tendencia (hPa) Humedad (%)
2020-04-08 23:00:00 10.9 3 Norte 8 Sudeste 0 -- -- 79
2020-04-08 22:00:00 11.9 5 Este 17 Nordeste 0 -- -- 73
2020-04-08 21:00:00 12.8 9 Este 19 Sudeste 0 -- -- 69
2020-04-08 20:00:00 15.2 8 Sudeste 17 Sur 0 -- -- 55
2020-04-08 19:00:00 16.4 13 Sur 18 Sur 0 -- -- 48
2020-04-08 18:00:00 16.5 8 Sur 22 Sur 0 -- -- 49
2020-04-08 17:00:00 17.4 12 Sudeste 23 Sur 0 -- -- 54
2020-04-08 16:00:00 16.9 13 Sudeste 24 Sudeste 0 -- -- 54
2020-04-08 15:00:00 17.5 8 Sur 21 Sur 0 -- -- 55
2020-04-08 14:00:00 16.5 9 Sudeste 19 Sudeste 0 -- -- 57
2020-04-08 13:00:00 15.3 8 Sur 17 Sur 0 -- -- 58
2020-04-08 12:00:00 14.7 6 Sur 14 Este 0 -- -- 57
2020-04-08 11:00:00 13.4 7 Este 17 Este 0 -- -- 64
2020-04-08 10:00:00 11.1 9 Sudeste 17 Sudeste 0 -- -- 84
2020-04-08 09:00:00 8 0 Calma 6 Sudoeste 0 -- -- 91
2020-04-08 08:00:00 4.6 5 Norte 12 Norte 0 -- -- 96
2020-04-08 07:00:00 4.4 4 Norte 10 Norte 0 -- -- 93
2020-04-08 06:00:00 4.6 7 Norte 10 Norte 0 -- -- 94
2020-04-08 05:00:00 4.9 6 Norte 12 Norte 0 -- -- 93
2020-04-08 04:00:00 5 8 Norte 13 Norte 0 -- -- 93
2020-04-08 03:00:00 5.6 9 Norte 12 Norte 0 -- -- 92
2020-04-08 02:00:00 7.6 7 Norte 9 Noroeste 0 -- -- 89
2020-04-08 01:00:00 8.3 0 Calma 10 Norte 0 -- -- 91
2020-04-08 00:00:00 8 3 Norte 7 Norte 0 -- -- 90
2020-04-07 23:00:00 9 5 Nordeste 10 Nordeste 0 -- -- 86
2020-04-07 22:00:00 9.5 4 Este 12 Este 0 -- -- 88
2020-04-07 21:00:00 9.9 5 Nordeste 17 Nordeste 0 -- -- 87
2020-04-07 20:00:00 10.7 12 Este 18 Este 0 -- -- 84
2020-04-07 19:00:00 10.8 14 Este 22 Este 0 -- -- 83
2020-04-07 18:00:00 10.6 14 Este 21 Este 0 -- -- 84
2020-04-07 17:00:00 10.3 13 Este 20 Sudeste 0 -- -- 88
2020-04-07 16:00:00 9.8 11 Este 21 Este 0 -- -- 85
2020-04-07 15:00:00 9.5 15 Este 21 Este 0 -- -- 86
2020-04-07 14:00:00 8.5 13 Este 17 Este 0 -- -- 91
2020-04-07 13:00:00 8.7 13 Este 19 Este 0 -- -- 84
2020-04-07 12:00:00 8.3 11 Este 15 Nordeste 0.4 -- -- 86
2020-04-07 11:00:00 7.6 5 Este 8 Este 0.8 -- -- 88
2020-04-07 10:00:00 7.8 4 Sudeste 14 Este 0.4 -- -- 89
2020-04-07 09:00:00 7.4 3 Sudeste 11 Sudeste 0.2 -- -- 92
2020-04-07 08:00:00 7.2 8 Sudeste 14 Este 0.2 -- -- 91
2020-04-07 07:00:00 7.4 3 Este 6 Sudeste 0.2 -- -- 86
2020-04-07 06:00:00 7.7 4 Este 8 Este 0 -- -- 83
2020-04-07 05:00:00 8.1 5 Este 8 Este 0 -- -- 73
2020-04-07 04:00:00 8.2 3 Este 5 Este 0 -- -- 76
2020-04-07 03:00:00 8.5 0 Calma 8 Este 0 -- -- 74
2020-04-07 02:00:00 9 0 Calma 6 Este 0 -- -- 78
2020-04-07 01:00:00 9.5 0 Calma 7 Sudeste 0 -- -- 77
2020-04-07 00:00:00 9.7 3 Nordeste 10 Nordeste 0 -- -- 79
2020-04-06 23:00:00 10.3 6 Sudeste 11 Sur 0 -- -- 75
2020-04-06 22:00:00 11.3 4 Sur 18 Sudeste 0 -- -- 70
2020-04-06 21:00:00 12.4 10 Sudeste 18 Este 0 -- -- 66
2020-04-06 20:00:00 13.6 6 Sudeste 18 Sur 0 -- -- 65
2020-04-06 19:00:00 15 9 Sur 20 Sudeste 0 -- -- 60
2020-04-06 18:00:00 15.7 9 Sudeste 15 Sudeste 0 -- -- 53
2020-04-06 17:00:00 16.2 5 Sudeste 24 Sudeste 0 -- -- 49
2020-04-06 16:00:00 15.9 10 Este 18 Sudeste 0 -- -- 47
2020-04-06 15:00:00 14.9 9 Este 20 Este 0 -- -- 42
2020-04-06 14:00:00 13.4 7 Este 15 Sudeste 0 -- -- 51
2020-04-06 13:00:00 12.2 6 Sudeste 15 Este 0 -- -- 53
2020-04-06 12:00:00 10.8 9 Sudeste 13 Este 0 -- -- 56
2020-04-06 11:00:00 9.6 6 Sur 10 Sudeste 0 -- -- 61
2020-04-06 10:00:00 7.6 4 Este 6 Este 0 -- -- 69
2020-04-06 09:00:00 6.7 4 Sudeste 8 Este 0 -- -- 73
2020-04-06 08:00:00 6.3 2 Este 7 Sur 0 -- -- 72
2020-04-06 07:00:00 6.5 5 Sudeste 13 Este 0 -- -- 67
2020-04-06 06:00:00 6.9 2 Este 10 Este 0 -- -- 63
2020-04-06 05:00:00 6.6 4 Sudeste 12 Este 0 -- -- 71
2020-04-06 04:00:00 7.7 5 Este 22 Este 0 -- -- 63
2020-04-06 03:00:00 7.6 14 Nordeste 17 Nordeste 0 -- -- 67
2020-04-06 02:00:00 6.5 11 Este 15 Nordeste 0 -- -- 78
2020-04-06 01:00:00 6.1 5 Norte 9 Norte 0 -- -- 80
2020-04-06 00:00:00 6.9 5 Este 13 Este 0 -- -- 77
2020-04-05 23:00:00 8.5 10 Este 15 Este 0 -- -- 71
2020-04-05 22:00:00 9.5 8 Este 17 Sur 0 -- -- 68
2020-04-05 21:00:00 11.5 10 Sudeste 23 Sudeste 0 -- -- 63
2020-04-05 20:00:00 12.5 12 Sudeste 18 Este 0 -- -- 61
2020-04-05 19:00:00 13.5 13 Sur 23 Sudeste 0 -- -- 53
2020-04-05 18:00:00 14 15 Sudeste 25 Sur 0 -- -- 49
2020-04-05 17:00:00 15.5 12 Sur 23 Este 0 -- -- 42
2020-04-05 16:00:00 15.2 13 Sur 27 Sur 0 -- -- 41
2020-04-05 15:00:00 14.9 11 Sur 26 Sudeste 0 -- -- 41
2020-04-05 14:00:00 14.5 12 Sudeste 25 Este 0 -- -- 45
2020-04-05 13:00:00 13.1 9 Sudeste 27 Sudeste 0 -- -- 46
2020-04-05 12:00:00 13 16 Este 27 Este 0 -- -- 50
2020-04-05 11:00:00 11.6 10 Este 15 Este 0 -- -- 55
2020-04-05 10:00:00 9.2 6 Este 11 Sudeste 0 -- -- 76
2020-04-05 09:00:00 6.4 3 Este 7 Nordeste 0 -- -- 82
2020-04-05 08:00:00 2.1 3 Norte 13 Norte 0 -- -- 89
2020-04-05 07:00:00 2 7 Norte 13 Nordeste 0 -- -- 87
2020-04-05 06:00:00 1.5 13 Nordeste 15 Nordeste 0 -- -- 90
2020-04-05 05:00:00 2.5 5 Norte 10 Norte 0 -- -- 86
2020-04-05 04:00:00 2.8 7 Norte 14 Norte 0 -- -- 85
2020-04-05 03:00:00 3.2 9 Norte 12 Norte 0 -- -- 86
2020-04-05 02:00:00 3.9 8 Norte 12 Norte 0 -- -- 87
2020-04-05 01:00:00 4.5 5 Norte 10 Norte 0 -- -- 85
2020-04-05 00:00:00 7.1 7 Sudeste 15 Sudeste 0 -- -- 75
2020-04-04 23:00:00 7.5 9 Sudeste 15 Sudeste 0 -- -- 76
2020-04-04 22:00:00 8.6 6 Este 12 Sudeste 0 -- -- 73
2020-04-04 21:00:00 10.3 8 Sudeste 21 Sudoeste 0 -- -- 67
2020-04-04 20:00:00 13.2 12 Sur 25 Sudeste 0 -- -- 61
2020-04-04 19:00:00 14.5 15 Sur 26 Sudeste 0 -- -- 52
2020-04-04 18:00:00 15.2 13 Sur 27 Sur 0 -- -- 52
2020-04-04 17:00:00 15.4 15 Sudeste 24 Sudeste 0 -- -- 50
2020-04-04 16:00:00 15.8 9 Sur 25 Sur 0 -- -- 51
2020-04-04 15:00:00 15.4 6 Sudeste 23 Este 0 -- -- 55
2020-04-04 14:00:00 15.4 9 Sudeste 24 Este 0 -- -- 54
2020-04-04 13:00:00 14 11 Sudeste 25 Este 0 -- -- 58
2020-04-04 12:00:00 13.3 12 Sudeste 21 Sudeste 0 -- -- 64
2020-04-04 11:00:00 11.5 9 Este 21 Este 0 -- -- 69
2020-04-04 10:00:00 9.6 14 Este 19 Este 0 -- -- 76
2020-04-04 09:00:00 6.2 4 Este 8 Este 0 -- -- 94
2020-04-04 08:00:00 3.3 2 Este 8 Norte 0 -- -- 97
2020-04-04 07:00:00 2.9 4 Norte 9 Norte 0 -- -- 96
2020-04-04 06:00:00 3 5 Norte 8 Norte 0 -- -- 97
2020-04-04 05:00:00 3 3 Norte 10 Norte 0 -- -- 95
2020-04-04 04:00:00 3.8 3 Noroeste 8 Norte 0 -- -- 93
2020-04-04 03:00:00 3.8 4 Norte 9 Nordeste 0 -- -- 93
2020-04-04 02:00:00 4.2 4 Norte 10 Norte 0 -- -- 93
2020-04-04 01:00:00 4.4 5 Nordeste 9 Nordeste 0 -- -- 94
2020-04-04 00:00:00 4.7 4 Norte 10 Norte 0 -- -- 93
2020-04-03 23:00:00 5.1 6 Norte 10 Norte 0 -- -- 91
2020-04-03 22:00:00 6.4 5 Norte 8 Norte 0 -- -- 87
2020-04-03 21:00:00 9.4 4 Noroeste 15 Oeste 0 -- -- 76
2020-04-03 20:00:00 12.1 9 Oeste 19 Oeste 0 -- -- 67
2020-04-03 19:00:00 12.9 10 Oeste 21 Oeste 0 -- -- 61
2020-04-03 18:00:00 13.3 12 Oeste 23 Oeste 0 -- -- 59
2020-04-03 17:00:00 12.8 13 Oeste 23 Oeste 0 -- -- 57
2020-04-03 16:00:00 12.2 13 Oeste 24 Oeste 0 -- -- 66
2020-04-03 15:00:00 11.9 13 Oeste 22 Oeste 0 -- -- 71
2020-04-03 14:00:00 10.8 9 Oeste 25 Noroeste 0 -- -- 76
2020-04-03 13:00:00 10.1 13 Oeste 20 Oeste 0 -- -- 79
2020-04-03 12:00:00 9.8 8 Oeste 14 Oeste 0 -- -- 78
2020-04-03 11:00:00 7.6 5 Oeste 11 Oeste 0 -- -- 88
2020-04-03 10:00:00 6.7 7 Noroeste 10 Noroeste 0 -- -- 94
2020-04-03 09:00:00 5.9 4 Norte 11 Norte 0 -- -- 99
2020-04-03 08:00:00 5.4 6 Noroeste 9 Noroeste 0 -- -- 99
2020-04-03 07:00:00 5.1 5 Noroeste 8 Norte 0 -- -- 99
2020-04-03 06:00:00 4.6 6 Norte 9 Norte 0 -- -- 99
2020-04-03 05:00:00 4 4 Sudeste 8 Norte 0 -- -- 98
2020-04-03 04:00:00 3 2 Noroeste 9 Norte 0 -- -- 97
2020-04-03 03:00:00 3 6 Norte 10 Norte 0 -- -- 96
2020-04-03 02:00:00 3.9 8 Norte 12 Norte 0 -- -- 96
2020-04-03 01:00:00 4.5 9 Norte 13 Norte 0 -- -- 95
2020-04-03 00:00:00 6.1 5 Norte 12 Norte 0 -- -- 95
2020-04-02 23:00:00 7.5 5 Nordeste 12 Nordeste 0 -- -- 94
2020-04-02 22:00:00 8.1 0 Calma 6 Noroeste 0 -- -- 94
2020-04-02 21:00:00 8.6 2 Norte 11 Sudoeste 0 -- -- 91
2020-04-02 20:00:00 9.7 11 Oeste 15 Oeste 0.4 -- -- 85
2020-04-02 19:00:00 10.6 8 Oeste 12 Oeste 0 -- -- 78
2020-04-02 18:00:00 10.9 7 Oeste 14 Oeste 0 -- -- 75
2020-04-02 17:00:00 10.9 8 Oeste 14 Oeste 0 -- -- 74
2020-04-02 16:00:00 10.3 9 Oeste 15 Oeste 0 -- -- 77
2020-04-02 15:00:00 9.6 8 Oeste 14 Oeste 0 -- -- 80
2020-04-02 14:00:00 9 9 Oeste 15 Oeste 0 -- -- 85
2020-04-02 13:00:00 8.4 9 Oeste 15 Noroeste 0 -- -- 90
2020-04-02 12:00:00 7.5 9 Oeste 12 Oeste 0 -- -- 95
2020-04-02 11:00:00 7 6 Oeste 12 Oeste 0 -- -- 96
2020-04-02 10:00:00 6.7 6 Oeste 9 Oeste 0 -- -- 98
2020-04-02 09:00:00 6.3 4 Oeste 8 Oeste 0 -- -- 99
2020-04-02 08:00:00 6 0 Calma 6 Oeste 0 -- -- 99
2020-04-02 07:00:00 6 5 Noroeste 11 Noroeste 0 -- -- 99
2020-04-02 06:00:00 6.1 7 Noroeste 11 Noroeste 0 -- -- 99
2020-04-02 05:00:00 6.2 6 Noroeste 9 Noroeste 0.4 -- -- 99
2020-04-02 04:00:00 6.2 5 Noroeste 9 Noroeste 0.6 -- -- 98
2020-04-02 03:00:00 6.3 0 Calma 6 Oeste 0.4 -- -- 98
2020-04-02 02:00:00 6.3 4 Noroeste 9 Oeste 0.6 -- -- 98
2020-04-02 01:00:00 6.4 5 Oeste 9 Oeste 0.8 -- -- 98
2020-04-02 00:00:00 6.4 4 Oeste 11 Oeste 0.8 -- -- 98
2020-04-01 23:00:00 6.4 6 Noroeste 9 Noroeste 1.4 -- -- 97
2020-04-01 22:00:00 6.3 5 Nordeste 9 Este 1.4 -- -- 97
2020-04-01 21:00:00 6.6 3 Este 6 Este 1.2 -- -- 97
2020-04-01 20:00:00 6.9 2 Sudeste 12 Sur 2 -- -- 96
2020-04-01 19:00:00 7.6 5 Oeste 13 Oeste 0.8 -- -- 96
2020-04-01 18:00:00 7.7 11 Oeste 17 Noroeste 0.2 -- -- 96
2020-04-01 17:00:00 7.8 8 Noroeste 13 Oeste 0.6 -- -- 95
2020-04-01 16:00:00 8.5 6 Sur 23 Este 0 -- -- 88
2020-04-01 15:00:00 7.9 14 Este 24 Este 0.8 -- -- 91
2020-04-01 14:00:00 7.3 18 Este 38 Este 0.6 -- -- 91
2020-04-01 13:00:00 8.5 21 Este 37 Este 0 -- -- 84
2020-04-01 12:00:00 8.4 17 Este 24 Este 0 -- -- 86
2020-04-01 11:00:00 7.8 11 Sudeste 25 Nordeste 0.2 -- -- 91
2020-04-01 10:00:00 7 18 Este 30 Este 0.4 -- -- 94
2020-04-01 09:00:00 7.4 22 Este 32 Este 0 -- -- 90
2020-04-01 08:00:00 7.1 19 Este 29 Este 0 -- -- 90
2020-04-01 07:00:00 6.8 19 Este 26 Este 0.2 -- -- 93
2020-04-01 06:00:00 6.4 17 Este 27 Este 0.4 -- -- 95
2020-04-01 05:00:00 6.4 18 Este 28 Este 0.2 -- -- 94
2020-04-01 04:00:00 6.9 16 Este 24 Este 0 -- -- 88
2020-04-01 03:00:00 6.9 17 Este 24 Este 0 -- -- 88
2020-04-01 02:00:00 6.6 14 Este 22 Este 0 -- -- 92
2020-04-01 01:00:00 6.2 10 Este 24 Nordeste 0 -- -- 94
2020-04-01 00:00:00 6.2 16 Este 27 Este 0.2 -- -- 94
2020-03-31 23:00:00 6.1 20 Este 31 Este 1.2 -- -- 94
2020-03-31 22:00:00 6.3 21 Este 29 Este 1 -- -- 94
2020-03-31 21:00:00 6.1 15 Este 24 Este 1.8 -- -- 96
2020-03-31 20:00:00 6.3 14 Sudeste 27 Este 1.6 -- -- 95
2020-03-31 19:00:00 6.9 11 Sudeste 21 Este 1.2 -- -- 96
2020-03-31 18:00:00 7.1 16 Este 26 Este 1.4 -- -- 94
2020-03-31 17:00:00 7.5 17 Este 34 Sudeste 0.6 -- -- 90
2020-03-31 16:00:00 8.2 18 Este 31 Este 0.4 -- -- 89
2020-03-31 15:00:00 8.4 15 Este 23 Este 0.8 -- -- 90
2020-03-31 14:00:00 8.3 11 Sudeste 18 Este 0.6 -- -- 90
2020-03-31 13:00:00 8.3 12 Sudeste 17 Sudeste 0 -- -- 91
2020-03-31 12:00:00 7.6 10 Sudeste 24 Este 0 -- -- 91
2020-03-31 11:00:00 6.6 10 Sudeste 31 Este 0 -- -- 95
2020-03-31 10:00:00 5.9 21 Este 31 Este 0 -- -- 96
2020-03-31 09:00:00 4.9 17 Este 25 Este 0.4 -- -- 99
2020-03-31 08:00:00 2.9 5 Sudeste 8 Sudeste 0.4 -- -- 98
2020-03-31 07:00:00 2.6 3 Sudeste 8 Sudeste 0.8 -- -- 98
2020-03-31 06:00:00 2.6 6 Sudeste 11 Sudeste 1 -- -- 97
2020-03-31 05:00:00 3.1 9 Sudeste 18 Este 0.2 -- -- 96
2020-03-31 04:00:00 2.7 15 Este 23 Este 0.4 -- -- 98
2020-03-31 03:00:00 1.6 4 Nordeste 9 Oeste 0.4 -- -- 98
2020-03-31 02:00:00 1 5 Sudoeste 9 Sudoeste 0.6 -- -- 97
2020-03-31 01:00:00 0.9 5 Oeste 11 Noroeste 0.2 -- -- 96
2020-03-31 00:00:00 1 8 Noroeste 13 Oeste 0.2 -- -- 95
2020-03-30 23:00:00 1.6 7 Noroeste 10 Oeste 0.2 -- -- 91
2020-03-30 22:00:00 3 2 Oeste 8 Oeste 0 -- -- 75
2020-03-30 21:00:00 3.6 9 Sudoeste 15 Oeste 0 -- -- 69
2020-03-30 20:00:00 4.8 0 Calma 6 Sudoeste 0 -- -- 54
2020-03-30 19:00:00 5.4 4 Sudoeste 12 Sudoeste 0 -- -- 54
2020-03-30 18:00:00 5.3 7 Sur 15 Sudoeste 0 -- -- 57
2020-03-30 17:00:00 4.3 7 Sur 15 Sudeste 0 -- -- 74
2020-03-30 16:00:00 3.6 8 Sudeste 19 Sudeste 0 -- -- 82
2020-03-30 15:00:00 3.5 13 Sudeste 22 Sur 0 -- -- 87
2020-03-30 14:00:00 2.4 12 Sudeste 18 Sudeste 0 -- -- 96
2020-03-30 13:00:00 1.9 10 Sudeste 18 Sudeste 0 -- -- 97
2020-03-30 12:00:00 1.8 8 Sudeste 17 Sur 0.4 -- -- 97
2020-03-30 11:00:00 1.8 13 Sur 21 Sudeste 0 -- -- 94
2020-03-30 10:00:00 2.8 14 Sudeste 23 Sudeste 0 -- -- 91
2020-03-30 09:00:00 3.1 11 Sudeste 19 Sudeste 0 -- -- 91
2020-03-30 08:00:00 3.8 13 Sudeste 31 Sudeste 0 -- -- 92
2020-03-30 07:00:00 4.2 8 Sudeste 23 Sudeste 0 -- -- 94
2020-03-30 06:00:00 4.3 11 Sudeste 23 Sudeste 0 -- -- 93
2020-03-30 05:00:00 4.1 9 Sudeste 21 Este 0 -- -- 93
2020-03-30 04:00:00 4.3 6 Sudeste 15 Sur 0 -- -- 91
2020-03-30 03:00:00 5.8 8 Sudeste 18 Sudeste 0 -- -- 89
2020-03-30 02:00:00 6.9 9 Sudeste 22 Sudeste 0 -- -- 86
2020-03-30 01:00:00 7.6 12 Este 17 Sudeste 0 -- -- 79
2020-03-30 00:00:00 9.1 17 Este 25 Este 0 -- -- 66
2020-03-29 23:00:00 10 15 Este 29 Este 0 -- -- 64
2020-03-29 22:00:00 11.1 18 Este 26 Este 0 -- -- 65
2020-03-29 21:00:00 12.2 5 Sudeste 13 Sudoeste 0 -- -- 58
2020-03-29 20:00:00 13.8 9 Sudoeste 21 Sudoeste 0 -- -- 51
2020-03-29 19:00:00 15.6 11 Sudoeste 23 Sudoeste 0 -- -- 47
2020-03-29 18:00:00 16 11 Sudoeste 23 Oeste 0 -- -- 44
2020-03-29 17:00:00 15.7 12 Sudoeste 26 Sur 0 -- -- 48
2020-03-29 16:00:00 15.9 10 Sur 24 Sur 0 -- -- 45
2020-03-29 15:00:00 15.2 14 Sudoeste 25 Sudoeste 0 -- -- 52
2020-03-29 14:00:00 14.7 12 Oeste 23 Noroeste 0 -- -- 54
2020-03-29 13:00:00 14.8 8 Sudoeste 13 Oeste 0 -- -- 50
2020-03-29 12:00:00 14 4 Oeste 8 Sudoeste 0 -- -- 53
2020-03-29 11:00:00 12 4 Sur 8 Este 0 -- -- 58
2020-03-29 10:00:00 9 3 Sudoeste 5 Sudoeste 0 -- -- 72
2020-03-29 09:00:00 5.4 5 Noroeste 11 Noroeste 0 -- -- 84
2020-03-29 08:00:00 3.4 7 Noroeste 11 Norte 0 -- -- 84
2020-03-29 07:00:00 3.9 8 Norte 14 Norte 0 -- -- 84
2020-03-29 06:00:00 4.1 9 Norte 13 Norte 0 -- -- 83
2020-03-29 05:00:00 4 10 Norte 13 Norte 0 -- -- 84
2020-03-29 03:00:00 4.6 8 Norte 12 Norte 0 -- -- 80
2020-03-29 01:00:00 5 7 Norte 13 Norte 0 -- -- 79
2020-03-29 00:00:00 5.1 9 Norte 12 Norte 0 -- -- 79
2020-03-28 23:00:00 5.8 9 Norte 12 Norte 0 -- -- 79
2020-03-28 22:00:00 8.2 6 Norte 8 Norte 0 -- -- 74
2020-03-28 21:00:00 10.7 5 Oeste 10 Oeste 0 -- -- 62
2020-03-28 20:00:00 11.4 6 Oeste 18 Sudoeste 0 -- -- 61
2020-03-28 19:00:00 12.4 11 Oeste 19 Oeste 0 -- -- 56
2020-03-28 18:00:00 13.2 13 Oeste 24 Oeste 0 -- -- 53
2020-03-28 17:00:00 14.3 12 Oeste 26 Noroeste 0 -- -- 48
2020-03-28 16:00:00 14.1 12 Oeste 23 Oeste 0 -- -- 49
2020-03-28 15:00:00 13.9 12 Oeste 34 Sudoeste 0 -- -- 50
2020-03-28 14:00:00 13.6 15 Sur 27 Sudoeste 0 -- -- 55
2020-03-28 13:00:00 13.5 12 Sur 23 Sudoeste 0 -- -- 52
2020-03-28 12:00:00 12.1 11 Oeste 18 Oeste 0 -- -- 55
2020-03-28 11:00:00 11.1 9 Oeste 14 Oeste 0 -- -- 56
2020-03-28 10:00:00 8.7 6 Noroeste 12 Oeste 0 -- -- 68
2020-03-28 09:00:00 5.7 9 Oeste 13 Oeste 0 -- -- 81
2020-03-28 08:00:00 2.9 6 Noroeste 14 Norte 0 -- -- 89
2020-03-28 07:00:00 1.6 10 Norte 13 Norte 0 -- -- 89
2020-03-28 06:00:00 2.1 7 Norte 12 Norte 0 -- -- 86
2020-03-28 05:00:00 3.2 9 Norte 12 Norte 0 -- -- 84
2020-03-28 04:00:00 4.6 4 Noroeste 8 Norte 0 -- -- 83
2020-03-28 03:00:00 4.9 5 Noroeste 8 Norte 0 -- -- 84
2020-03-28 02:00:00 4.9 5 Norte 7 Norte 0 -- -- 83
2020-03-28 01:00:00 4.7 2 Norte 8 Norte 0 -- -- 82
2020-03-28 00:00:00 4 6 Norte 10 Norte 0 -- -- 81
2020-03-27 23:00:00 3.7 6 Norte 9 Norte 0 -- -- 82
2020-03-27 22:00:00 4.5 4 Norte 8 Este 0 -- -- 79
2020-03-27 21:00:00 4.6 4 Nordeste 9 Norte 0 -- -- 76
2020-03-27 20:00:00 6.8 2 Sudoeste 7 Oeste 0 -- -- 61
2020-03-27 19:00:00 8.6 4 Sudoeste 21 Sudoeste 0 -- -- 58
2020-03-27 18:00:00 9.7 11 Sudoeste 23 Sudoeste 0 -- -- 53
2020-03-27 17:00:00 10.3 11 Oeste 23 Oeste 0 -- -- 50
2020-03-27 16:00:00 10.8 14 Oeste 23 Oeste 0 -- -- 49
2020-03-27 15:00:00 11 10 Oeste 23 Sudoeste 0 -- -- 41
2020-03-27 14:00:00 10.1 13 Oeste 22 Noroeste 0 -- -- 43
2020-03-27 13:00:00 8.9 12 Oeste 22 Oeste 0 -- -- 43
2020-03-27 12:00:00 7.5 14 Oeste 22 Oeste 0 -- -- 57
2020-03-27 11:00:00 6.2 12 Oeste 22 Oeste 0 -- -- 65
2020-03-27 10:00:00 4.6 12 Noroeste 18 Noroeste 0 -- -- 71
2020-03-27 09:00:00 2.4 5 Noroeste 10 Noroeste 0 -- -- 87
2020-03-27 08:00:00 -0.2 5 Noroeste 11 Norte 0 -- -- 95
2020-03-27 07:00:00 -2 8 Norte 10 Norte 0 -- -- 94
2020-03-27 06:00:00 -1.7 9 Norte 13 Norte 0 -- -- 95
2020-03-27 05:00:00 -1.4 7 Norte 11 Norte 0 -- -- 94
2020-03-27 04:00:00 -1.3 8 Norte 10 Norte 0 -- -- 95
2020-03-27 03:00:00 -0.8 7 Noroeste 9 Noroeste 0 -- -- 95
2020-03-27 02:00:00 -0.1 5 Norte 10 Oeste 0 -- -- 92
2020-03-27 01:00:00 0.6 8 Noroeste 12 Oeste 0 -- -- 92
2020-03-27 00:00:00 -0.3 7 Norte 11 Norte 0 -- -- 92
2020-03-26 23:00:00 -0.1 8 Norte 14 Norte 0 -- -- 90
2020-03-26 22:00:00 1 7 Norte 13 Norte 0 -- -- 88
2020-03-26 21:00:00 2.6 8 Este 18 Sudeste 0 -- -- 84
2020-03-26 20:00:00 3.8 6 Sur 17 Sur 0 -- -- 81
2020-03-26 19:00:00 4.1 13 Sudeste 28 Sudeste 0 -- -- 78
2020-03-26 18:00:00 5.5 18 Sudeste 31 Sudeste 0 -- -- 68
2020-03-26 17:00:00 5.4 17 Sudeste 34 Sudeste 0 -- -- 73
2020-03-26 16:00:00 6.5 21 Sudeste 37 Sudeste 0 -- -- 65
2020-03-26 15:00:00 7.9 16 Sur 28 Sudeste 0 -- -- 64
2020-03-26 14:00:00 7.6 20 Sudeste 30 Sudeste 0 -- -- 64
2020-03-26 13:00:00 9.5 14 Norte 36 Este 0 -- -- 37
2020-03-26 12:00:00 8.5 10 Nordeste 26 Este 0 -- -- 40
2020-03-26 11:00:00 7.6 15 Norte 21 Nordeste 0 -- -- 55
2020-03-26 10:00:00 6.7 7 Nordeste 15 Norte 0 -- -- 75
2020-03-26 09:00:00 4.1 8 Noroeste 12 Noroeste 0 -- -- 90
2020-03-26 08:00:00 2 4 Norte 8 Norte 0 -- -- 96
2020-03-26 07:00:00 1.6 4 Norte 9 Norte 0 -- -- 96
2020-03-26 06:00:00 2.3 0 Calma 10 Sudeste 0 -- -- 93
2020-03-26 05:00:00 2.9 5 Noroeste 9 Noroeste 0 -- -- 93
2020-03-26 04:00:00 3.3 6 Oeste 11 Noroeste 0 -- -- 92
2020-03-26 03:00:00 3.4 6 Noroeste 9 Noroeste 0 -- -- 91
2020-03-26 02:00:00 3.4 5 Noroeste 13 Oeste 0 -- -- 91
2020-03-26 01:00:00 3.8 6 Oeste 10 Oeste 0 -- -- 91
2020-03-26 00:00:00 3.5 6 Nordeste 7 Nordeste 0 -- -- 88
2020-03-25 23:00:00 3.7 3 Oeste 8 Noroeste 0 -- -- 87
2020-03-25 22:00:00 3.7 4 Noroeste 8 Noroeste 0 -- -- 88
2020-03-25 21:00:00 4 5 Oeste 8 Oeste 0 -- -- 85
2020-03-25 20:00:00 4 3 Noroeste 8 Noroeste 0 -- -- 82
2020-03-25 19:00:00 4.5 6 Noroeste 11 Oeste 0 -- -- 80
2020-03-25 18:00:00 4.9 6 Oeste 10 Oeste 0 -- -- 76
2020-03-25 17:00:00 5 6 Oeste 18 Noroeste 0 -- -- 76
2020-03-25 16:00:00 5.1 3 Sudoeste 10 Sudoeste 0 -- -- 73
2020-03-25 15:00:00 5.3 3 Este 15 Este 0 -- -- 71
2020-03-25 14:00:00 4.2 8 Este 16 Este 0 -- -- 74
2020-03-25 13:00:00 3.5 12 Sudeste 18 Sudeste 0 -- -- 74
2020-03-25 12:00:00 2.7 11 Sudeste 22 Sudeste 0 -- -- 84
2020-03-25 11:00:00 2 13 Sudeste 21 Sudeste 0 -- -- 89
2020-03-25 10:00:00 1.7 13 Sudeste 19 Sudeste 0.2 -- -- 89
2020-03-25 09:00:00 1.5 8 Sudeste 19 Sudeste 0 -- -- 97
2020-03-25 08:00:00 1.6 7 Sudeste 15 Sudeste 0 -- -- 97
2020-03-25 07:00:00 1.8 10 Sudeste 20 Este 0.4 -- -- 97
2020-03-25 06:00:00 2.2 15 Sudeste 24 Sudeste 0.4 -- -- 96
2020-03-25 05:00:00 2.8 12 Sudeste 18 Sudeste 0 -- -- 95
2020-03-25 04:00:00 3.4 9 Sudeste 17 Sudeste 0.2 -- -- 95
2020-03-25 03:00:00 3.7 9 Sudeste 16 Sudeste 0 -- -- 94
2020-03-25 02:00:00 4.1 6 Sudeste 18 Sur 0 -- -- 97
2020-03-25 01:00:00 4.3 10 Sudeste 23 Sudeste 0 -- -- 97
2020-03-25 00:00:00 4.9 10 Sudeste 22 Sudeste 0.2 -- -- 97
2020-03-24 23:00:00 5.5 11 Sur 18 Sur 0 -- -- 96
2020-03-24 22:00:00 5.6 9 Sudeste 17 Sudeste 0.2 -- -- 96
2020-03-24 21:00:00 5.8 12 Sudeste 24 Sur 2.8 -- -- 96
2020-03-24 20:00:00 6.8 12 Sur 26 Sudeste 3 -- -- 93
2020-03-24 19:00:00 8.9 13 Sudeste 24 Sudeste 0 -- -- 84
2020-03-24 18:00:00 10.4 12 Sur 21 Sur 0 -- -- 73
2020-03-24 17:00:00 11 11 Sur 21 Sur 0 -- -- 67
2020-03-24 16:00:00 11.4 12 Sur 27 Sudoeste 0 -- -- 67
2020-03-24 15:00:00 12.7 9 Sudoeste 22 Sudoeste 0 -- -- 61
2020-03-24 14:00:00 12.3 10 Sur 19 Sudoeste 0 -- -- 67
2020-03-24 13:00:00 11.7 5 Sudoeste 13 Sudoeste 0 -- -- 69
2020-03-24 12:00:00 10.1 3 Sudoeste 11 Sudoeste 0 -- -- 75
2020-03-24 11:00:00 9.5 3 Nordeste 8 Nordeste 0 -- -- 82
2020-03-24 10:00:00 8.3 4 Nordeste 14 Este 0 -- -- 87
2020-03-24 09:00:00 7.4 6 Sudeste 10 Sudeste 0 -- -- 88
2020-03-24 08:00:00 6.5 4 Sudeste 10 Sudeste 0 -- -- 94
2020-03-24 07:00:00 6 4 Este 10 Nordeste 0 -- -- 94
2020-03-24 06:00:00 6.2 5 Este 12 Sudeste 0 -- -- 92
2020-03-24 05:00:00 6.8 3 Sudeste 6 Nordeste 0 -- -- 92
2020-03-24 04:00:00 7 2 Sudeste 6 Nordeste 0 -- -- 91
2020-03-24 03:00:00 7.1 5 Este 10 Sudeste 0 -- -- 90
2020-03-24 02:00:00 7.4 5 Sudeste 8 Este 0 -- -- 90
2020-03-24 01:00:00 7.2 4 Sudeste 6 Sudeste 0 -- -- 93
2020-03-24 00:00:00 6.6 4 Norte 9 Norte 0 -- -- 96
2020-03-23 23:00:00 5.9 6 Norte 10 Norte 0 -- -- 95
2020-03-23 22:00:00 6.3 8 Norte 12 Norte 0 -- -- 94
2020-03-23 21:00:00 8.1 4 Este 13 Nordeste 0.2 -- -- 90
2020-03-23 20:00:00 9 10 Este 33 Sudeste 0.4 -- -- 87
2020-03-23 19:00:00 10.7 13 Sudeste 28 Sudeste 0 -- -- 74
2020-03-23 18:00:00 12.1 15 Sudeste 27 Este 0 -- -- 68
2020-03-23 17:00:00 12.3 20 Sudeste 29 Sudeste 0 -- -- 64
2020-03-23 16:00:00 12 16 Sudeste 28 Este 0 -- -- 68
2020-03-23 15:00:00 11.3 16 Sudeste 31 Este 0.2 -- -- 76
2020-03-23 14:00:00 9.7 23 Sudeste 31 Sudeste 0.2 -- -- 83
2020-03-23 13:00:00 10.6 18 Este 26 Este 0 -- -- 81
2020-03-23 12:00:00 11.2 14 Este 34 Este 0 -- -- 72
2020-03-23 11:00:00 11.6 24 Este 32 Este 0 -- -- 68
2020-03-23 10:00:00 10.5 16 Este 28 Este 0 -- -- 73
2020-03-23 09:00:00 10.3 17 Este 24 Este 0 -- -- 76
2020-03-23 08:00:00 7.9 10 Este 22 Este 0 -- -- 87
2020-03-23 07:00:00 6.1 8 Norte 13 Nordeste 0 -- -- 93
2020-03-23 06:00:00 5.9 8 Este 13 Nordeste 0 -- -- 96
2020-03-23 05:00:00 4.6 4 Norte 11 Norte 0 -- -- 94
2020-03-23 04:00:00 4.2 9 Norte 14 Norte 0 -- -- 93
2020-03-23 03:00:00 4.7 9 Norte 13 Norte 0 -- -- 94
2020-03-23 02:00:00 6 6 Norte 9 Norte 0 -- -- 92
2020-03-23 01:00:00 7.9 3 Nordeste 11 Sudeste 0 -- -- 89
2020-03-23 00:00:00 8.2 6 Sudeste 13 Nordeste 0 -- -- 89
2020-03-22 23:00:00 7.8 10 Este 15 Sudeste 0 -- -- 89
2020-03-22 22:00:00 8.1 6 Sudeste 13 Sur 0 -- -- 86
2020-03-22 21:00:00 8.7 5 Este 14 Sur 0 -- -- 82
2020-03-22 20:00:00 9.5 8 Sudeste 20 Sur 0 -- -- 77
2020-03-22 19:00:00 10.7 10 Sur 21 Sudeste 0 -- -- 78
2020-03-22 18:00:00 11.7 13 Sur 27 Sur 0 -- -- 75
2020-03-22 17:00:00 13.9 10 Sur 20 Sudeste 0 -- -- 52
2020-03-22 16:00:00 13.5 8 Sur 19 Sudoeste 0 -- -- 57
2020-03-22 15:00:00 12.9 9 Sur 18 Sudeste 0 -- -- 58
2020-03-22 14:00:00 13.5 10 Sur 18 Sur 0 -- -- 65
2020-03-22 13:00:00 12.4 9 Sudeste 18 Sur 0 -- -- 60
2020-03-22 12:00:00 11.1 6 Sur 12 Sur 0 -- -- 65
2020-03-22 11:00:00 10.6 6 Sur 9 Sudeste 0 -- -- 70
2020-03-22 10:00:00 9.7 5 Sudeste 11 Este 0 -- -- 75
2020-03-22 09:00:00 8.5 5 Este 8 Este 0 -- -- 83
2020-03-22 08:00:00 5.4 4 Norte 8 Norte 0 -- -- 91
2020-03-22 07:00:00 6.1 8 Norte 10 Norte 0 -- -- 90
2020-03-22 06:00:00 7.1 2 Este 7 Nordeste 0 -- -- 87
2020-03-22 05:00:00 7.1 5 Este 7 Este 0 -- -- 88
2020-03-22 04:00:00 7.1 0 Calma 5 Este 0 -- -- 88
2020-03-22 03:00:00 7.5 0 Calma 11 Este 0 -- -- 86
2020-03-22 02:00:00 6.4 2 Norte 6 Norte 0 -- -- 90
2020-03-22 01:00:00 6.2 3 Norte 5 Norte 0 -- -- 88
2020-03-22 00:00:00 6.5 2 Nordeste 8 Norte 0 -- -- 89
2020-03-21 23:00:00 6.5 0 Calma 12 Este 0 -- -- 85
2020-03-21 22:00:00 6.7 5 Sudeste 10 Este 0 -- -- 81
2020-03-21 21:00:00 6.2 6 Norte 12 Norte 0 -- -- 76
2020-03-21 20:00:00 8.3 6 Norte 9 Norte 0 -- -- 69
2020-03-21 19:00:00 11.6 6 Sudoeste 18 Sudoeste 0 -- -- 55
2020-03-21 18:00:00 13.1 11 Sur 18 Sur 0 -- -- 51
2020-03-21 17:00:00 13.8 10 Sur 19 Sudeste 0 -- -- 51
2020-03-21 16:00:00 14.3 12 Sudeste 22 Sudeste 0 -- -- 50
2020-03-21 15:00:00 14.3 14 Sudeste 22 Sudeste 0 -- -- 49
2020-03-21 14:00:00 14.7 5 Sudeste 20 Este 0 -- -- 43
2020-03-21 13:00:00 13 6 Sur 17 Sudoeste 0 -- -- 40
2020-03-21 12:00:00 12.2 11 Sudeste 19 Sur 0 -- -- 46
2020-03-21 11:00:00 11.5 9 Este 15 Sudeste 0 -- -- 56
2020-03-21 10:00:00 10.1 5 Sudeste 10 Sudeste 0 -- -- 62
2020-03-21 09:00:00 7 5 Este 9 Este 0 -- -- 88
2020-03-21 08:00:00 2.8 3 Norte 8 Norte 0 -- -- 95
2020-03-21 07:00:00 2 3 Norte 9 Noroeste 0 -- -- 94
2020-03-21 06:00:00 2.1 5 Norte 8 Norte 0 -- -- 93
2020-03-21 05:00:00 2.6 6 Norte 10 Nordeste 0 -- -- 96
2020-03-21 04:00:00 2.5 5 Norte 9 Norte 0 -- -- 95
2020-03-21 03:00:00 3 5 Norte 6 Norte 0 -- -- 95
2020-03-21 02:00:00 3.7 4 Norte 8 Nordeste 0 -- -- 94
2020-03-21 01:00:00 4.1 3 Norte 7 Norte 0 -- -- 94
2020-03-21 00:00:00 4.5 3 Norte 6 Norte 0 -- -- 92
2020-03-20 23:00:00 5.2 3 Norte 7 Este 0 -- -- 90
2020-03-20 22:00:00 7.1 4 Este 9 Este 0 -- -- 85
2020-03-20 21:00:00 8.3 3 Este 10 Sudeste 0 -- -- 77
2020-03-20 20:00:00 9.8 6 Sudeste 15 Sudeste 0 -- -- 70
2020-03-20 19:00:00 11.4 8 Sudeste 21 Sur 0 -- -- 58
2020-03-20 18:00:00 12.6 10 Sudeste 24 Sudeste 0 -- -- 50
2020-03-20 17:00:00 13.7 14 Sur 27 Sur 0 -- -- 44
2020-03-20 16:00:00 14.3 17 Sur 25 Sur 0 -- -- 45
2020-03-20 15:00:00 14.1 13 Sur 26 Sudeste 0 -- -- 46
2020-03-20 14:00:00 14.6 10 Sudeste 23 Sudeste 0 -- -- 48
2020-03-20 13:00:00 13.9 11 Sudeste 20 Sur 0 -- -- 51
2020-03-20 12:00:00 12.5 9 Sudeste 21 Sur 0 -- -- 57
2020-03-20 11:00:00 11.7 11 Sudeste 20 Sur 0 -- -- 55
2020-03-20 10:00:00 10.4 11 Este 18 Este 0 -- -- 60
2020-03-20 09:00:00 8.4 5 Este 12 Nordeste 0 -- -- 81
2020-03-20 08:00:00 5.6 6 Nordeste 10 Nordeste 0 -- -- 87
2020-03-20 07:00:00 4.6 5 Este 13 Nordeste 0 -- -- 87
2020-03-20 06:00:00 4.1 6 Este 12 Nordeste 0 -- -- 87
2020-03-20 05:00:00 4.3 7 Nordeste 11 Nordeste 0 -- -- 89
2020-03-20 04:00:00 4.8 4 Este 10 Nordeste 0 -- -- 92
2020-03-20 03:00:00 4.9 3 Norte 7 Norte 0 -- -- 92
2020-03-20 02:00:00 5.5 3 Este 12 Este 0 -- -- 92
2020-03-20 01:00:00 5.3 5 Norte 9 Nordeste 0 -- -- 94
2020-03-20 00:00:00 6.3 2 Nordeste 9 Este 0 -- -- 91
2020-03-19 23:00:00 8 7 Este 10 Este 0 -- -- 89
2020-03-19 22:00:00 8.4 8 Este 17 Este 0 -- -- 87
2020-03-19 21:00:00 9.3 11 Este 14 Este 0 -- -- 74
2020-03-19 20:00:00 10.7 6 Sudeste 21 Sur 0 -- -- 79
2020-03-19 19:00:00 12.4 8 Sudeste 20 Sudeste 0 -- -- 74
2020-03-19 18:00:00 13.5 12 Sur 28 Sudeste 0 -- -- 64
2020-03-19 17:00:00 14.8 18 Sudeste 29 Sudeste 0 -- -- 40
2020-03-19 16:00:00 16.3 14 Sur 23 Sur 0 -- -- 49
2020-03-19 15:00:00 16.9 11 Sur 27 Sur 0 -- -- 47
2020-03-19 14:00:00 15.8 13 Sur 23 Sur 0 -- -- 46
2020-03-19 13:00:00 14.3 10 Sudeste 23 Sur 0 -- -- 57
2020-03-19 12:00:00 14.6 12 Sudeste 23 Este 0 -- -- 60
2020-03-19 11:00:00 12.7 6 Sur 14 Sudeste 0 -- -- 76
2020-03-19 10:00:00 11.7 8 Sudeste 13 Este 0 -- -- 84
2020-03-19 09:00:00 8.8 5 Este 7 Este 0 -- -- 99
2020-03-19 08:00:00 6 2 Sudeste 3 Sudeste 0 -- -- 98
2020-03-19 07:00:00 5 0 Calma 6 Norte 0 -- -- 97
2020-03-19 06:00:00 5.3 0 Calma 6 Norte 0 -- -- 97
2020-03-19 05:00:00 5.8 0 Calma 8 Norte 0 -- -- 96
2020-03-19 04:00:00 6 4 Norte 12 Norte 0 -- -- 96
2020-03-19 03:00:00 6.3 8 Norte 12 Norte 0 -- -- 93
2020-03-19 02:00:00 6.3 9 Norte 12 Norte 0 -- -- 92
2020-03-19 01:00:00 6.6 8 Norte 9 Norte 0 -- -- 93
2020-03-19 00:00:00 7.1 7 Norte 12 Norte 0 -- -- 92
2020-03-18 23:00:00 7.8 9 Norte 12 Norte 0 -- -- 91
2020-03-18 22:00:00 8.5 5 Norte 10 Norte 0 -- -- 93
2020-03-18 21:00:00 9.2 8 Norte 10 Norte 0 -- -- 93
2020-03-18 20:00:00 9.7 8 Norte 10 Norte 0 -- -- 91
2020-03-18 19:00:00 11.2 6 Noroeste 10 Noroeste 0 -- -- 87
2020-03-18 18:00:00 12.3 6 Oeste 14 Oeste 0 -- -- 83
2020-03-18 17:00:00 13.2 9 Oeste 14 Oeste 0 -- -- 81
2020-03-18 16:00:00 14.5 6 Oeste 13 Oeste 0 -- -- 76
2020-03-18 15:00:00 14.8 5 Este 14 Este 0 -- -- 71
2020-03-18 14:00:00 14.7 6 Sudeste 13 Sur 0 -- -- 72
2020-03-18 13:00:00 13.6 2 Sur 9 Este 0 -- -- 77
2020-03-18 12:00:00 12.2 3 Sudeste 8 Sudeste 0 -- -- 84
2020-03-18 11:00:00 10.2 4 Sudeste 8 Sudeste 0 -- -- 96
2020-03-18 10:00:00 8.6 3 Sudoeste 6 Oeste 0 -- -- 99
2020-03-18 09:00:00 7.7 4 Noroeste 9 Noroeste 0 -- -- 98
2020-03-18 08:00:00 6.3 5 Noroeste 8 Noroeste 0 -- -- 98
2020-03-18 07:00:00 6.4 5 Norte 10 Norte 0 -- -- 97
2020-03-18 06:00:00 6.3 4 Norte 9 Norte 0 -- -- 96
2020-03-18 05:00:00 6.5 5 Norte 9 Norte 0 -- -- 97
2020-03-18 04:00:00 6.6 7 Norte 9 Norte 0 -- -- 97
2020-03-18 03:00:00 7.2 3 Noroeste 8 Norte 0 -- -- 97
2020-03-18 02:00:00 7.1 6 Norte 9 Norte 0 -- -- 96
2020-03-18 01:00:00 8.1 4 Norte 8 Norte 0 -- -- 95
2020-03-18 00:00:00 8.6 2 Norte 6 Noroeste 0 -- -- 95
2020-03-17 23:00:00 8.3 4 Norte 9 Norte 0 -- -- 95
2020-03-17 22:00:00 7.9 7 Norte 9 Norte 0 -- -- 93
2020-03-17 21:00:00 8.8 5 Norte 9 Norte 0 -- -- 91
2020-03-17 20:00:00 10.7 4 Oeste 8 Norte 0 -- -- 88
2020-03-17 19:00:00 11.9 2 Noroeste 7 Oeste 0 -- -- 83
2020-03-17 18:00:00 12.8 4 Oeste 10 Este 0 -- -- 78
2020-03-17 17:00:00 12.8 0 Calma 6 Nordeste 0 -- -- 67
2020-03-17 16:00:00 12.5 3 Este 13 Este 0 -- -- 71
2020-03-17 15:00:00 13.1 8 Sudeste 14 Sudeste 0 -- -- 69
2020-03-17 14:00:00 12.5 2 Sur 6 Sudoeste 0 -- -- 78
2020-03-17 13:00:00 12.1 0 Calma 13 Este 0 -- -- 77
2020-03-17 12:00:00 11.8 9 Este 18 Este 0 -- -- 73
2020-03-17 11:00:00 11.6 14 Este 22 Este 0 -- -- 73
2020-03-17 10:00:00 11.2 16 Este 24 Este 0 -- -- 74
2020-03-17 09:00:00 10.4 15 Este 25 Este 0 -- -- 77
2020-03-17 08:00:00 10.2 15 Este 33 Este 0 -- -- 75
2020-03-17 07:00:00 10.3 22 Este 36 Este 0 -- -- 73
2020-03-17 06:00:00 10.1 21 Este 35 Este 0 -- -- 75
2020-03-17 05:00:00 9.9 24 Este 34 Este 0 -- -- 77
2020-03-17 04:00:00 9.6 24 Este 41 Sudeste 0 -- -- 80
2020-03-17 03:00:00 9.2 19 Este 29 Este 0 -- -- 82
2020-03-17 02:00:00 8.9 20 Este 32 Este 0 -- -- 81
2020-03-17 01:00:00 8 18 Este 34 Este 0 -- -- 84
2020-03-17 00:00:00 8.1 26 Este 36 Este 0 -- -- 83
2020-03-16 23:00:00 7.6 24 Este 40 Este 0 -- -- 89
2020-03-16 22:00:00 7.8 31 Este 56 Este 0 -- -- 88
2020-03-16 21:00:00 8 31 Este 47 Este 0 -- -- 87
2020-03-16 20:00:00 8.3 32 Este 44 Este 0 -- -- 83
2020-03-16 19:00:00 8.6 35 Este 49 Este 0 -- -- 83
2020-03-16 18:00:00 8.5 30 Este 47 Este 0.2 -- -- 86
2020-03-16 17:00:00 8 34 Este 45 Este 0.4 -- -- 91
2020-03-16 16:00:00 7.8 24 Este 49 Este 0 -- -- 89
2020-03-16 15:00:00 8.1 33 Este 46 Este 0 -- -- 85
2020-03-16 14:00:00 7 26 Este 42 Este 0.6 -- -- 92
2020-03-16 13:00:00 6.3 33 Este 48 Este 2.2 -- -- 92
2020-03-16 12:00:00 6.5 27 Este 36 Este 1.6 -- -- 94
2020-03-16 11:00:00 6.7 23 Este 41 Este 1.2 -- -- 94
2020-03-16 10:00:00 7.4 14 Sudeste 22 Este 1 -- -- 97
2020-03-16 09:00:00 6.9 13 Este 26 Este 1.8 -- -- 96
2020-03-16 08:00:00 6.7 20 Este 28 Este 2 -- -- 96
2020-03-16 07:00:00 7.2 21 Este 29 Este 1.2 -- -- 97
2020-03-16 06:00:00 7.3 15 Este 22 Este 1.4 -- -- 98
2020-03-16 05:00:00 7.2 15 Este 30 Este 2 -- -- 98
2020-03-16 04:00:00 7.3 18 Sudeste 34 Sudeste 1.4 -- -- 98
2020-03-16 03:00:00 7.4 19 Sudeste 34 Sudeste 1.4 -- -- 97
2020-03-16 02:00:00 7.5 22 Sudeste 38 Sudeste 2.4 -- -- 97
2020-03-16 01:00:00 7.8 23 Sudeste 35 Este 5.2 -- -- 97
2020-03-16 00:00:00 8 19 Este 39 Sudeste 1.4 -- -- 96
2020-03-15 23:00:00 8.2 22 Sudeste 42 Este 0 -- -- 93
2020-03-15 22:00:00 8.1 30 Sudeste 46 Sudeste 1 -- -- 92
2020-03-15 21:00:00 8.8 19 Sudeste 45 Sudeste 0.2 -- -- 91
2020-03-15 20:00:00 9.9 22 Sudeste 31 Este 0.2 -- -- 90
2020-03-15 19:00:00 10.9 14 Este 32 Sur 0.4 -- -- 87
2020-03-15 18:00:00 12.5 19 Sudeste 32 Sur 0 -- -- 76
2020-03-15 17:00:00 14 17 Sudeste 33 Sudeste 0 -- -- 69
2020-03-15 16:00:00 15.7 15 Sudeste 27 Sudeste 0 -- -- 57
2020-03-15 15:00:00 16 17 Sudeste 28 Sudeste 0 -- -- 54
2020-03-15 14:00:00 16.8 13 Sudeste 24 Sudeste 0 -- -- 55
2020-03-15 13:00:00 15.6 13 Sudeste 22 Este 0 -- -- 54
2020-03-15 12:00:00 15.4 13 Este 22 Este 0 -- -- 53
2020-03-15 11:00:00 13.8 11 Este 17 Este 0 -- -- 58
2020-03-15 10:00:00 12 7 Sudeste 11 Este 0 -- -- 76
2020-03-15 09:00:00 8.4 4 Este 8 Este 0 -- -- 91
2020-03-15 08:00:00 4.3 2 Nordeste 10 Nordeste 0 -- -- 95
2020-03-15 07:00:00 3.7 6 Norte 8 Norte 0 -- -- 95
2020-03-15 06:00:00 4.3 9 Norte 10 Norte 0 -- -- 96
2020-03-15 05:00:00 4.2 6 Norte 10 Norte 0 -- -- 96
2020-03-15 04:00:00 4.5 3 Norte 9 Norte 0 -- -- 96
2020-03-15 03:00:00 4.5 6 Norte 9 Norte 0 -- -- 96
2020-03-15 02:00:00 4.9 4 Norte 10 Norte 0 -- -- 95
2020-03-15 01:00:00 5.3 8 Norte 11 Norte 0 -- -- 95
2020-03-15 00:00:00 5.2 8 Norte 11 Norte 0 -- -- 95
2020-03-14 23:00:00 5.6 5 Norte 9 Norte 0 -- -- 94
2020-03-14 22:00:00 6.4 4 Nordeste 7 Norte 0 -- -- 93
2020-03-14 21:00:00 7.2 5 Norte 9 Norte 0 -- -- 90
2020-03-14 20:00:00 9.2 3 Noroeste 6 Norte 0 -- -- 83
2020-03-14 19:00:00 12.1 5 Sur 14 Sudoeste 0 -- -- 74
2020-03-14 18:00:00 13.5 6 Noroeste 14 Oeste 0 -- -- 72
2020-03-14 17:00:00 13.7 8 Oeste 19 Sur 0 -- -- 71
2020-03-14 16:00:00 14.2 9 Sudoeste 19 Sudeste 0 -- -- 71
2020-03-14 15:00:00 12.6 7 Sur 16 Sur 0 -- -- 78
2020-03-14 14:00:00 12 12 Sudeste 19 Sudeste 0 -- -- 79
2020-03-14 13:00:00 11.8 13 Sudeste 18 Sudeste 0 -- -- 81
2020-03-14 12:00:00 12.2 8 Sudeste 13 Este 0 -- -- 87
2020-03-14 11:00:00 10.1 8 Este 13 Sudeste 0 -- -- 95
2020-03-14 10:00:00 9.1 6 Este 10 Este 0 -- -- 98
2020-03-14 09:00:00 8.4 5 Este 9 Este 0 -- -- 98
2020-03-14 08:00:00 8 4 Este 9 Norte 0 -- -- 98
2020-03-14 07:00:00 7.2 6 Norte 8 Norte 0 -- -- 97
2020-03-14 06:00:00 8.3 0 Calma 4 Norte 0 -- -- 98
2020-03-14 05:00:00 8.3 2 Nordeste 9 Este 0 -- -- 98
2020-03-14 04:00:00 7.9 6 Este 9 Sudeste 0 -- -- 97
2020-03-14 03:00:00 7.4 3 Noroeste 5 Norte 0 -- -- 97
2020-03-14 02:00:00 7.3 2 Sudeste 10 Norte 0 -- -- 97
2020-03-14 01:00:00 7.2 7 Norte 10 Norte 0 -- -- 94
2020-03-14 00:00:00 9.2 9 Noroeste 17 Noroeste 0 -- -- 95
2020-03-13 23:00:00 8.9 8 Norte 15 Noroeste 0 -- -- 93
2020-03-13 22:00:00 9.8 7 Noroeste 10 Noroeste 0 -- -- 94
2020-03-13 21:00:00 10.4 4 Norte 10 Noroeste 0 -- -- 93
2020-03-13 20:00:00 10.8 8 Noroeste 10 Noroeste 0 -- -- 91
2020-03-13 19:00:00 11.7 2 Oeste 10 Oeste 0 -- -- 88
2020-03-13 18:00:00 12.2 8 Oeste 14 Noroeste 0 -- -- 87
2020-03-13 17:00:00 13.2 4 Sur 13 Sudeste 0 -- -- 78
2020-03-13 16:00:00 12.9 8 Sur 14 Sudeste 0 -- -- 81
2020-03-13 15:00:00 11.8 6 Oeste 12 Oeste 0 -- -- 87
2020-03-13 14:00:00 10.8 10 Noroeste 17 Oeste 0 -- -- 92
2020-03-13 13:00:00 11.7 9 Sudoeste 17 Oeste 0 -- -- 86
2020-03-13 12:00:00 12.2 10 Sudeste 22 Sudeste 0 -- -- 82
2020-03-13 11:00:00 11.6 12 Sudeste 20 Sudeste 0 -- -- 87
2020-03-13 10:00:00 10.4 10 Este 14 Este 0 -- -- 91
2020-03-13 09:00:00 9.4 8 Este 12 Sudeste 0 -- -- 96
2020-03-13 08:00:00 8.6 4 Sudeste 12 Sudeste 0 -- -- 96
2020-03-13 07:00:00 9.1 6 Este 8 Este 0 -- -- 93
2020-03-13 06:00:00 9.9 6 Este 10 Nordeste 0 -- -- 90
2020-03-13 05:00:00 9.3 5 Nordeste 9 Este 0 -- -- 92
2020-03-13 04:00:00 9.9 4 Nordeste 9 Este 0 -- -- 90
2020-03-13 03:00:00 10.9 7 Nordeste 15 Sudeste 0 -- -- 89
2020-03-13 02:00:00 11.7 10 Sudeste 26 Este 0 -- -- 89
2020-03-13 01:00:00 12.8 10 Sudoeste 26 Sudoeste 0 -- -- 86
2020-03-13 00:00:00 13 12 Norte 44 Sudeste 0.8 -- -- 86
2020-03-12 23:00:00 15.3 18 Sudeste 36 Norte 1.2 -- -- 68
2020-03-12 22:00:00 15.9 6 Oeste 23 Nordeste 0 -- -- 67
2020-03-12 21:00:00 17.3 14 Nordeste 24 Noroeste 0 -- -- 56
2020-03-12 20:00:00 15.3 7 Norte 9 Noroeste 0 -- -- 63
2020-03-12 19:00:00 17.9 5 Noroeste 8 Norte 0 -- -- 59
2020-03-12 18:00:00 21.4 0 Calma 6 Oeste 0 -- -- 48
2020-03-12 17:00:00 21.8 5 Oeste 12 Oeste 0 -- -- 45
2020-03-12 16:00:00 21.8 11 Oeste 17 Oeste 0 -- -- 45
2020-03-12 15:00:00 23.4 8 Oeste 16 Oeste 0 -- -- 39
2020-03-12 14:00:00 22.2 9 Oeste 17 Oeste 0 -- -- 40
2020-03-12 13:00:00 23.2 5 Sudeste 10 Sudeste 0 -- -- 36
2020-03-12 12:00:00 21.8 4 Oeste 12 Este 0 -- -- 37
2020-03-12 11:00:00 18.9 7 Sudeste 15 Sudeste 0 -- -- 49
2020-03-12 10:00:00 15.2 5 Sudeste 9 Este 0 -- -- 62
2020-03-12 09:00:00 11.6 4 Sudeste 6 Sudeste 0 -- -- 71
2020-03-12 08:00:00 8.1 0 Calma 8 Norte 0 -- -- 80
2020-03-12 07:00:00 7.7 5 Norte 11 Norte 0 -- -- 80
2020-03-12 06:00:00 8.1 2 Norte 11 Norte 0 -- -- 81
2020-03-12 05:00:00 8.6 8 Norte 12 Norte 0 -- -- 81
2020-03-12 04:00:00 9.4 9 Norte 13 Norte 0 -- -- 83
2020-03-12 03:00:00 9.3 8 Norte 13 Noroeste 0 -- -- 83
2020-03-12 02:00:00 9.9 7 Norte 10 Norte 0 -- -- 81
2020-03-12 01:00:00 10.1 6 Norte 12 Norte 0 -- -- 80
2020-03-12 00:00:00 10.6 9 Norte 12 Norte 0 -- -- 80
2020-03-11 23:00:00 10.5 8 Norte 12 Norte 0 -- -- 80
2020-03-11 22:00:00 10.3 8 Norte 12 Norte 0 -- -- 80
2020-03-11 21:00:00 11.3 3 Nordeste 10 Norte 0 -- -- 76
2020-03-11 20:00:00 12.7 8 Norte 10 Norte 0 -- -- 71
2020-03-11 19:00:00 16.9 8 Noroeste 14 Oeste 0 -- -- 58
2020-03-11 18:00:00 19.1 9 Oeste 15 Oeste 0 -- -- 49
2020-03-11 17:00:00 20.1 8 Oeste 18 Oeste 0 -- -- 41
2020-03-11 16:00:00 20.7 7 Oeste 14 Oeste 0 -- -- 43
2020-03-11 15:00:00 20.3 8 Noroeste 16 Sudoeste 0 -- -- 42
2020-03-11 14:00:00 20.1 9 Oeste 15 Oeste 0 -- -- 42
2020-03-11 13:00:00 20 6 Oeste 11 Sudoeste 0 -- -- 41
2020-03-11 12:00:00 18.4 4 Sudoeste 9 Sudoeste 0 -- -- 41
2020-03-11 11:00:00 15.6 3 Sudoeste 12 Sudeste 0 -- -- 55
2020-03-11 10:00:00 13.5 6 Oeste 13 Noroeste 0 -- -- 56
2020-03-11 09:00:00 10.6 0 Calma 11 Noroeste 0 -- -- 66
2020-03-11 08:00:00 6.4 9 Noroeste 14 Norte 0 -- -- 75
2020-03-11 07:00:00 5.8 5 Norte 12 Norte 0 -- -- 75
2020-03-11 06:00:00 6 9 Norte 13 Norte 0 -- -- 75
2020-03-11 05:00:00 6.7 9 Norte 14 Norte 0 -- -- 74
2020-03-11 04:00:00 6.9 10 Norte 15 Norte 0 -- -- 72
2020-03-11 03:00:00 6.8 8 Norte 14 Norte 0 -- -- 69
2020-03-11 02:00:00 7.3 9 Norte 12 Norte 0 -- -- 69
2020-03-11 01:00:00 7.8 12 Norte 19 Norte 0 -- -- 70
2020-03-11 00:00:00 7.8 3 Norte 9 Norte 0 -- -- 71
2020-03-10 23:00:00 9 2 Sur 12 Norte 0 -- -- 71
2020-03-10 22:00:00 9.6 5 Norte 10 Noroeste 0 -- -- 71
2020-03-10 21:00:00 10.4 6 Norte 10 Norte 0 -- -- 68
2020-03-10 20:00:00 12.6 5 Este 22 Noroeste 0 -- -- 62
2020-03-10 19:00:00 13.5 13 Noroeste 16 Noroeste 0 -- -- 58
2020-03-10 18:00:00 15.1 12 Noroeste 20 Oeste 0 -- -- 52
2020-03-10 17:00:00 16 12 Oeste 20 Oeste 0 -- -- 50
2020-03-10 16:00:00 15.8 12 Oeste 18 Oeste 0 -- -- 49
2020-03-10 15:00:00 15.4 14 Oeste 21 Oeste 0 -- -- 49
2020-03-10 14:00:00 14.1 13 Oeste 23 Oeste 0 -- -- 50
2020-03-10 13:00:00 12.9 5 Oeste 16 Oeste 0 -- -- 52
2020-03-10 12:00:00 11.6 11 Oeste 18 Oeste 0 -- -- 55
2020-03-10 11:00:00 11.3 3 Sudoeste 8 Sur 0 -- -- 54
2020-03-10 10:00:00 7.8 5 Sudoeste 9 Oeste 0 -- -- 69
2020-03-10 09:00:00 4.6 3 Sudeste 10 Este 0 -- -- 80
2020-03-10 08:00:00 2.2 3 Este 9 Este 0 -- -- 87
2020-03-10 07:00:00 2.1 4 Nordeste 13 Este 0 -- -- 83
2020-03-10 06:00:00 2.2 6 Sudeste 12 Sudeste 0 -- -- 78
2020-03-10 05:00:00 3 7 Este 13 Este 0 -- -- 74
2020-03-10 04:00:00 2.6 6 Este 9 Este 0 -- -- 75
2020-03-10 03:00:00 3.3 3 Sudeste 9 Norte 0 -- -- 72
2020-03-10 02:00:00 3.4 7 Norte 18 Norte 0 -- -- 72
2020-03-10 01:00:00 3.7 10 Norte 13 Norte 0 -- -- 71
2020-03-10 00:00:00 4.9 10 Noroeste 15 Noroeste 0 -- -- 66